sensor_id;sensor_type;location;lat;lon;timestamp;pressure;altitude;pressure_sealevel;temperature;humidity
56392;BME280;42289;53.582;9.714;2022-07-04T00:00:20;102101.38;;;14.34;100.00
56392;BME280;42289;53.582;9.714;2022-07-04T00:02:47;102103.72;;;14.42;100.00
56392;BME280;42289;53.582;9.714;2022-07-04T00:05:15;102103.03;;;14.37;100.00
56392;BME280;42289;53.582;9.714;2022-07-04T00:07:44;102105.00;;;14.30;100.00
56392;BME280;42289;53.582;9.714;2022-07-04T00:10:13;102100.22;;;14.43;100.00
56392;BME280;42289;53.582;9.714;2022-07-04T00:12:40;102101.22;;;14.39;100.00
56392;BME280;42289;53.582;9.714;2022-07-04T00:15:07;102101.59;;;14.28;100.00
56392;BME280;42289;53.582;9.714;2022-07-04T00:17:34;102098.00;;;14.30;100.00
56392;BME280;42289;53.582;9.714;2022-07-04T00:20:02;102094.53;;;14.30;100.00
56392;BME280;42289;53.582;9.714;2022-07-04T00:22:29;102093.03;;;14.23;100.00
56392;BME280;42289;53.582;9.714;2022-07-04T00:24:57;102093.19;;;14.18;100.00
56392;BME280;42289;53.582;9.714;2022-07-04T00:27:23;102080.03;;;14.20;100.00
56392;BME280;42289;53.582;9.714;2022-07-04T00:29:50;102085.09;;;14.26;100.00
56392;BME280;42289;53.582;9.714;2022-07-04T00:32:17;102085.13;;;14.24;100.00
56392;BME280;42289;53.582;9.714;2022-07-04T00:34:44;102077.59;;;14.15;100.00
56392;BME280;42289;53.582;9.714;2022-07-04T00:37:10;102077.75;;;14.10;100.00
56392;BME280;42289;53.582;9.714;2022-07-04T00:39:37;102074.94;;;14.17;100.00
56392;BME280;42289;53.582;9.714;2022-07-04T00:42:05;102067.25;;;14.12;100.00
56392;BME280;42289;53.582;9.714;2022-07-04T00:44:32;102074.28;;;14.10;100.00
56392;BME280;42289;53.582;9.714;2022-07-04T00:50:29;102071.97;;;14.01;100.00
56392;BME280;42289;53.582;9.714;2022-07-04T00:52:55;102076.34;;;14.00;100.00
56392;BME280;42289;53.582;9.714;2022-07-04T00:55:22;102072.72;;;14.04;100.00
56392;BME280;42289;53.582;9.714;2022-07-04T00:57:51;102083.38;;;13.98;100.00
56392;BME280;42289;53.582;9.714;2022-07-04T01:00:18;102078.91;;;14.02;100.00
56392;BME280;42289;53.582;9.714;2022-07-04T01:02:45;102083.25;;;14.03;100.00
56392;BME280;42289;53.582;9.714;2022-07-04T01:05:12;102084.00;;;14.06;100.00
56392;BME280;42289;53.582;9.714;2022-07-04T01:07:40;102075.34;;;14.04;100.00
56392;BME280;42289;53.582;9.714;2022-07-04T01:10:07;102076.28;;;14.02;100.00
56392;BME280;42289;53.582;9.714;2022-07-04T01:12:34;102077.31;;;13.98;100.00
56392;BME280;42289;53.582;9.714;2022-07-04T01:15:03;102071.88;;;14.04;100.00
56392;BME280;42289;53.582;9.714;2022-07-04T01:17:29;102073.78;;;13.99;100.00
56392;BME280;42289;53.582;9.714;2022-07-04T01:19:56;102068.41;;;14.03;100.00
56392;BME280;42289;53.582;9.714;2022-07-04T01:22:23;102071.91;;;14.02;100.00
56392;BME280;42289;53.582;9.714;2022-07-04T01:24:50;102069.03;;;14.10;100.00
56392;BME280;42289;53.582;9.714;2022-07-04T01:27:17;102073.69;;;14.02;100.00
56392;BME280;42289;53.582;9.714;2022-07-04T01:29:43;102074.44;;;14.05;100.00
56392;BME280;42289;53.582;9.714;2022-07-04T01:32:10;102076.94;;;14.08;100.00
56392;BME280;42289;53.582;9.714;2022-07-04T01:34:37;102072.66;;;14.06;100.00
56392;BME280;42289;53.582;9.714;2022-07-04T01:37:04;102072.53;;;14.10;100.00
56392;BME280;42289;53.582;9.714;2022-07-04T01:39:32;102065.38;;;14.16;100.00
56392;BME280;42289;53.582;9.714;2022-07-04T01:41:58;102075.63;;;14.22;100.00
56392;BME280;42289;53.582;9.714;2022-07-04T01:44:25;102075.75;;;14.19;100.00
56392;BME280;42289;53.582;9.714;2022-07-04T01:46:51;102071.94;;;14.27;100.00
56392;BME280;42289;53.582;9.714;2022-07-04T01:49:18;102085.25;;;14.21;100.00
56392;BME280;42289;53.582;9.714;2022-07-04T01:51:45;102093.81;;;14.25;100.00
56392;BME280;42289;53.582;9.714;2022-07-04T01:54:11;102087.75;;;14.24;100.00
56392;BME280;42289;53.582;9.714;2022-07-04T01:56:39;102089.53;;;14.24;100.00
56392;BME280;42289;53.582;9.714;2022-07-04T01:59:06;102088.91;;;14.16;100.00
56392;BME280;42289;53.582;9.714;2022-07-04T02:01:33;102093.28;;;14.15;100.00
56392;BME280;42289;53.582;9.714;2022-07-04T02:04:00;102087.09;;;14.18;100.00
56392;BME280;42289;53.582;9.714;2022-07-04T02:06:27;102089.00;;;14.12;100.00
56392;BME280;42289;53.582;9.714;2022-07-04T02:08:54;102091.78;;;14.08;100.00
56392;BME280;42289;53.582;9.714;2022-07-04T02:11:39;102097.75;;;14.11;100.00
56392;BME280;42289;53.582;9.714;2022-07-04T02:14:24;102103.44;;;13.98;100.00
56392;BME280;42289;53.582;9.714;2022-07-04T02:16:50;102102.66;;;13.95;100.00
56392;BME280;42289;53.582;9.714;2022-07-04T02:19:17;102100.06;;;13.94;100.00
56392;BME280;42289;53.582;9.714;2022-07-04T02:21:43;102108.41;;;13.78;100.00
56392;BME280;42289;53.582;9.714;2022-07-04T02:24:10;102102.06;;;13.86;100.00
56392;BME280;42289;53.582;9.714;2022-07-04T02:26:36;102101.22;;;13.85;100.00
56392;BME280;42289;53.582;9.714;2022-07-04T02:29:04;102097.72;;;13.86;100.00
56392;BME280;42289;53.582;9.714;2022-07-04T02:31:31;102100.47;;;13.82;100.00
56392;BME280;42289;53.582;9.714;2022-07-04T02:33:57;102095.38;;;13.77;100.00
56392;BME280;42289;53.582;9.714;2022-07-04T02:36:23;102102.22;;;13.81;100.00
56392;BME280;42289;53.582;9.714;2022-07-04T02:38:50;102103.13;;;13.80;100.00
56392;BME280;42289;53.582;9.714;2022-07-04T02:41:16;102096.00;;;13.85;100.00
56392;BME280;42289;53.582;9.714;2022-07-04T02:43:43;102099.31;;;13.90;100.00
56392;BME280;42289;53.582;9.714;2022-07-04T02:46:10;102096.13;;;13.80;100.00
56392;BME280;42289;53.582;9.714;2022-07-04T02:48:37;102097.06;;;13.79;100.00
56392;BME280;42289;53.582;9.714;2022-07-04T02:51:03;102098.63;;;13.85;100.00
56392;BME280;42289;53.582;9.714;2022-07-04T02:53:29;102095.09;;;13.86;100.00
56392;BME280;42289;53.582;9.714;2022-07-04T02:55:56;102091.50;;;13.90;100.00
56392;BME280;42289;53.582;9.714;2022-07-04T02:58:22;102097.59;;;13.89;100.00
56392;BME280;42289;53.582;9.714;2022-07-04T03:00:49;102091.72;;;13.83;100.00
56392;BME280;42289;53.582;9.714;2022-07-04T03:03:16;102095.06;;;13.88;100.00
56392;BME280;42289;53.582;9.714;2022-07-04T03:05:43;102088.16;;;13.85;100.00
56392;BME280;42289;53.582;9.714;2022-07-04T03:08:09;102095.06;;;13.88;100.00
56392;BME280;42289;53.582;9.714;2022-07-04T03:10:36;102089.94;;;13.83;100.00
56392;BME280;42289;53.582;9.714;2022-07-04T03:13:02;102100.34;;;13.86;100.00
56392;BME280;42289;53.582;9.714;2022-07-04T03:15:28;102095.09;;;13.86;100.00
56392;BME280;42289;53.582;9.714;2022-07-04T03:17:55;102094.22;;;13.86;100.00
56392;BME280;42289;53.582;9.714;2022-07-04T03:20:22;102090.63;;;13.90;100.00
56392;BME280;42289;53.582;9.714;2022-07-04T03:22:49;102095.34;;;13.78;100.00
56392;BME280;42289;53.582;9.714;2022-07-04T03:25:16;102099.72;;;13.78;100.00
56392;BME280;42289;53.582;9.714;2022-07-04T03:27:43;102096.09;;;13.82;100.00
56392;BME280;42289;53.582;9.714;2022-07-04T03:30:10;102107.03;;;13.67;100.00
56392;BME280;42289;53.582;9.714;2022-07-04T03:32:37;102105.13;;;13.72;100.00
56392;BME280;42289;53.582;9.714;2022-07-04T03:35:04;102109.34;;;13.76;100.00
56392;BME280;42289;53.582;9.714;2022-07-04T03:37:32;102114.75;;;13.71;100.00
56392;BME280;42289;53.582;9.714;2022-07-04T03:39:58;102113.88;;;13.71;100.00
56392;BME280;42289;53.582;9.714;2022-07-04T03:42:24;102122.69;;;13.67;100.00
56392;BME280;42289;53.582;9.714;2022-07-04T03:44:51;102129.66;;;13.68;100.00
56392;BME280;42289;53.582;9.714;2022-07-04T03:47:17;102128.81;;;13.67;100.00
56392;BME280;42289;53.582;9.714;2022-07-04T03:49:44;102128.81;;;13.67;100.00
56392;BME280;42289;53.582;9.714;2022-07-04T03:52:10;102134.91;;;13.66;100.00
56392;BME280;42289;53.582;9.714;2022-07-04T03:54:38;102132.53;;;13.58;100.00
56392;BME280;42289;53.582;9.714;2022-07-04T03:57:05;102139.53;;;13.58;100.00
56392;BME280;42289;53.582;9.714;2022-07-04T03:59:31;102144.75;;;13.58;100.00
56392;BME280;42289;53.582;9.714;2022-07-04T04:01:58;102137.59;;;13.63;100.00
56392;BME280;42289;53.582;9.714;2022-07-04T04:04:24;102144.69;;;13.59;100.00
56392;BME280;42289;53.582;9.714;2022-07-04T04:07:08;102145.53;;;13.60;100.00
56392;BME280;42289;53.582;9.714;2022-07-04T04:09:34;102154.00;;;13.68;100.00
56392;BME280;42289;53.582;9.714;2022-07-04T04:12:02;102154.94;;;13.66;100.00
56392;BME280;42289;53.582;9.714;2022-07-04T04:14:29;102155.00;;;13.64;100.00
56392;BME280;42289;53.582;9.714;2022-07-04T04:16:55;102152.22;;;13.70;100.00
56392;BME280;42289;53.582;9.714;2022-07-04T04:19:22;102148.56;;;13.76;100.00
56392;BME280;42289;53.582;9.714;2022-07-04T04:21:48;102155.50;;;13.77;100.00
56392;BME280;42289;53.582;9.714;2022-07-04T04:24:15;102160.84;;;13.72;100.00
56392;BME280;42289;53.582;9.714;2022-07-04T04:26:41;102164.06;;;13.82;100.00
56392;BME280;42289;53.582;9.714;2022-07-04T04:29:09;102157.16;;;13.79;100.00
56392;BME280;42289;53.582;9.714;2022-07-04T04:31:35;102161.41;;;13.84;100.00
56392;BME280;42289;53.582;9.714;2022-07-04T04:34:02;102163.97;;;13.85;100.00
56392;BME280;42289;53.582;9.714;2022-07-04T04:36:29;102168.97;;;13.93;100.00
56392;BME280;42289;53.582;9.714;2022-07-04T04:38:55;102170.63;;;13.95;100.00
56392;BME280;42289;53.582;9.714;2022-07-04T04:41:22;102179.22;;;13.99;100.00
56392;BME280;42289;53.582;9.714;2022-07-04T04:43:48;102182.59;;;14.03;100.00
56392;BME280;42289;53.582;9.714;2022-07-04T04:46:16;102176.38;;;14.07;100.00
56392;BME280;42289;53.582;9.714;2022-07-04T04:48:42;102179.59;;;14.15;100.00
56392;BME280;42289;53.582;9.714;2022-07-04T04:51:09;102192.00;;;14.08;100.00
56392;BME280;42289;53.582;9.714;2022-07-04T04:53:35;102194.78;;;14.02;100.00
56392;BME280;42289;53.582;9.714;2022-07-04T04:56:02;102201.47;;;14.12;100.00
56392;BME280;42289;53.582;9.714;2022-07-04T04:58:28;102208.50;;;14.10;100.00
56392;BME280;42289;53.582;9.714;2022-07-04T05:00:55;102212.03;;;14.09;100.00
56392;BME280;42289;53.582;9.714;2022-07-04T05:03:23;102215.63;;;14.05;100.00
56392;BME280;42289;53.582;9.714;2022-07-04T05:05:49;102224.56;;;14.26;100.00
56392;BME280;42289;53.582;9.714;2022-07-04T05:08:16;102220.75;;;14.37;100.00
56392;BME280;42289;53.582;9.714;2022-07-04T05:10:42;102225.75;;;14.44;100.00
56392;BME280;42289;53.582;9.714;2022-07-04T05:13:09;102225.44;;;14.54;100.00
56392;BME280;42289;53.582;9.714;2022-07-04T05:15:35;102226.91;;;14.62;100.00
56392;BME280;42289;53.582;9.714;2022-07-04T05:18:02;102231.34;;;14.60;100.00
56392;BME280;42289;53.582;9.714;2022-07-04T05:20:29;102228.28;;;14.74;100.00
56392;BME280;42289;53.582;9.714;2022-07-04T05:22:56;102229.72;;;14.83;100.00
56392;BME280;42289;53.582;9.714;2022-07-04T05:25:22;102226.22;;;14.84;100.00
56392;BME280;42289;53.582;9.714;2022-07-04T05:27:49;102229.72;;;14.83;100.00
56392;BME280;42289;53.582;9.714;2022-07-04T05:30:15;102235.41;;;14.96;100.00
56392;BME280;42289;53.582;9.714;2022-07-04T05:32:41;102230.38;;;15.15;100.00
56392;BME280;42289;53.582;9.714;2022-07-04T05:35:08;102240.94;;;15.13;100.00
56392;BME280;42289;53.582;9.714;2022-07-04T05:37:36;102238.03;;;15.21;100.00
56392;BME280;42289;53.582;9.714;2022-07-04T05:40:03;102235.50;;;15.43;100.00
56392;BME280;42289;53.582;9.714;2022-07-04T05:42:29;102243.34;;;15.43;100.00
56392;BME280;42289;53.582;9.714;2022-07-04T05:44:56;102238.53;;;15.56;100.00
56392;BME280;42289;53.582;9.714;2022-07-04T05:47:22;102235.66;;;15.62;100.00
56392;BME280;42289;53.582;9.714;2022-07-04T05:49:50;102242.28;;;15.73;100.00
56392;BME280;42289;53.582;9.714;2022-07-04T05:52:16;102235.78;;;15.85;100.00
56392;BME280;42289;53.582;9.714;2022-07-04T05:54:44;102236.25;;;15.94;100.00
56392;BME280;42289;53.582;9.714;2022-07-04T05:57:11;102238.28;;;16.10;100.00
56392;BME280;42289;53.582;9.714;2022-07-04T05:59:37;102239.56;;;16.22;100.00
56392;BME280;42289;53.582;9.714;2022-07-04T06:02:04;102235.03;;;16.47;100.00
56392;BME280;42289;53.582;9.714;2022-07-04T06:04:30;102229.50;;;16.76;100.00
56392;BME280;42289;53.582;9.714;2022-07-04T06:06:56;102222.94;;;17.27;100.00
56392;BME280;42289;53.582;9.714;2022-07-04T06:09:23;102203.72;;;17.84;100.00
56392;BME280;42289;53.582;9.714;2022-07-04T06:11:51;102166.31;;;18.15;100.00
56392;BME280;42289;53.582;9.714;2022-07-04T06:14:17;102109.75;;;18.75;100.00
56392;BME280;42289;53.582;9.714;2022-07-04T06:16:44;102019.44;;;19.37;100.00
56392;BME280;42289;53.582;9.714;2022-07-04T06:19:10;101914.78;;;19.54;100.00
56392;BME280;42289;53.582;9.714;2022-07-04T06:21:37;101819.38;;;19.90;100.00
56392;BME280;42289;53.582;9.714;2022-07-04T06:24:03;101808.81;;;20.19;100.00
56392;BME280;42289;53.582;9.714;2022-07-04T06:26:30;101676.28;;;20.93;100.00
56392;BME280;42289;53.582;9.714;2022-07-04T06:28:58;101518.19;;;21.35;100.00
56392;BME280;42289;53.582;9.714;2022-07-04T06:31:24;101296.16;;;21.33;100.00
56392;BME280;42289;53.582;9.714;2022-07-04T06:33:51;101193.88;;;21.57;100.00
56392;BME280;42289;53.582;9.714;2022-07-04T06:36:35;101158.47;;;22.57;100.00
56392;BME280;42289;53.582;9.714;2022-07-04T06:39:01;101191.28;;;23.39;100.00
56392;BME280;42289;53.582;9.714;2022-07-04T06:41:28;101300.31;;;23.14;100.00
56392;BME280;42289;53.582;9.714;2022-07-04T06:43:54;101275.28;;;23.07;100.00
56392;BME280;42289;53.582;9.714;2022-07-04T06:46:22;101289.91;;;23.84;100.00
56392;BME280;42289;53.582;9.714;2022-07-04T06:48:48;101374.25;;;24.33;100.00
56392;BME280;42289;53.582;9.714;2022-07-04T06:51:15;101399.50;;;24.58;100.00
56392;BME280;42289;53.582;9.714;2022-07-04T06:53:41;101423.53;;;24.47;100.00
56392;BME280;42289;53.582;9.714;2022-07-04T06:56:10;101427.84;;;24.07;100.00
56392;BME280;42289;53.582;9.714;2022-07-04T06:58:36;101416.88;;;23.48;100.00
56392;BME280;42289;53.582;9.714;2022-07-04T07:01:03;101405.94;;;23.09;100.00
56392;BME280;42289;53.582;9.714;2022-07-04T07:03:30;101392.13;;;23.27;100.00
56392;BME280;42289;53.582;9.714;2022-07-04T07:05:57;101359.19;;;22.64;100.00
56392;BME280;42289;53.582;9.714;2022-07-04T07:08:23;101392.00;;;23.49;100.00
56392;BME280;42289;53.582;9.714;2022-07-04T07:10:50;101418.31;;;22.76;100.00
56392;BME280;42289;53.582;9.714;2022-07-04T07:13:16;101416.16;;;23.67;100.00
56392;BME280;42289;53.582;9.714;2022-07-04T07:15:43;101481.09;;;23.84;100.00
56392;BME280;42289;53.582;9.714;2022-07-04T07:18:09;101428.66;;;22.91;100.00
56392;BME280;42289;53.582;9.714;2022-07-04T07:20:37;101381.91;;;22.46;100.00
56392;BME280;42289;53.582;9.714;2022-07-04T07:23:04;101430.47;;;23.34;100.00
56392;BME280;42289;53.582;9.714;2022-07-04T07:25:31;101431.75;;;24.03;100.00
56392;BME280;42289;53.582;9.714;2022-07-04T07:27:58;101449.56;;;23.49;100.00
56392;BME280;42289;53.582;9.714;2022-07-04T07:30:24;101500.84;;;24.34;100.00
56392;BME280;42289;53.582;9.714;2022-07-04T07:32:51;101565.47;;;25.06;100.00
56392;BME280;42289;53.582;9.714;2022-07-04T07:35:17;101590.88;;;25.20;100.00
56392;BME280;42289;53.582;9.714;2022-07-04T07:37:45;101580.78;;;25.24;100.00
56392;BME280;42289;53.582;9.714;2022-07-04T07:40:11;101630.38;;;26.05;100.00
56392;BME280;42289;53.582;9.714;2022-07-04T07:42:38;101648.59;;;25.90;100.00
56392;BME280;42289;53.582;9.714;2022-07-04T07:45:05;101586.91;;;25.05;100.00
56392;BME280;42289;53.582;9.714;2022-07-04T07:47:32;101601.03;;;25.36;100.00
56392;BME280;42289;53.582;9.714;2022-07-04T07:49:59;101562.75;;;24.25;100.00
56392;BME280;42289;53.582;9.714;2022-07-04T07:52:28;101618.03;;;25.14;100.00
56392;BME280;42289;53.582;9.714;2022-07-04T07:54:55;101598.13;;;25.08;100.00
56392;BME280;42289;53.582;9.714;2022-07-04T07:57:22;101625.41;;;25.41;100.00
56392;BME280;42289;53.582;9.714;2022-07-04T07:59:48;101643.34;;;25.39;100.00
56392;BME280;42289;53.582;9.714;2022-07-04T08:02:14;101643.72;;;26.05;100.00
56392;BME280;42289;53.582;9.714;2022-07-04T08:04:41;101659.41;;;26.27;100.00
56392;BME280;42289;53.582;9.714;2022-07-04T08:07:08;101658.59;;;24.75;100.00
56392;BME280;42289;53.582;9.714;2022-07-04T08:09:35;101620.28;;;24.57;100.00
56392;BME280;42289;53.582;9.714;2022-07-04T08:12:05;101644.00;;;24.91;100.00
56392;BME280;42289;53.582;9.714;2022-07-04T08:14:33;101658.13;;;25.82;100.00
56392;BME280;42289;53.582;9.714;2022-07-04T08:17:00;101714.81;;;26.73;100.00
56392;BME280;42289;53.582;9.714;2022-07-04T08:19:26;101687.53;;;25.71;100.00
56392;BME280;42289;53.582;9.714;2022-07-04T08:21:54;101664.66;;;25.39;100.00
56392;BME280;42289;53.582;9.714;2022-07-04T08:24:20;101698.16;;;24.90;100.00
56392;BME280;42289;53.582;9.714;2022-07-04T08:26:47;101648.16;;;24.41;100.00
56392;BME280;42289;53.582;9.714;2022-07-04T08:29:15;101588.78;;;23.45;100.00
56392;BME280;42289;53.582;9.714;2022-07-04T08:31:41;101597.09;;;22.49;100.00
56392;BME280;42289;53.582;9.714;2022-07-04T08:34:08;101600.63;;;23.18;100.00
56392;BME280;42289;53.582;9.714;2022-07-04T08:36:35;101650.91;;;24.18;100.00
56392;BME280;42289;53.582;9.714;2022-07-04T08:39:01;101630.56;;;24.08;100.00
56392;BME280;42289;53.582;9.714;2022-07-04T08:41:29;101590.13;;;22.60;100.00
56392;BME280;42289;53.582;9.714;2022-07-04T08:44:00;101543.00;;;21.94;100.00
56392;BME280;42289;53.582;9.714;2022-07-04T08:46:29;101484.31;;;21.40;100.00
56392;BME280;42289;53.582;9.714;2022-07-04T08:48:58;101398.75;;;20.69;100.00
56392;BME280;42289;53.582;9.714;2022-07-04T08:51:33;101418.16;;;20.67;100.00
56392;BME280;42289;53.582;9.714;2022-07-04T08:54:05;101475.34;;;22.37;100.00
56392;BME280;42289;53.582;9.714;2022-07-04T08:56:52;101568.69;;;23.63;100.00
56392;BME280;42289;53.582;9.714;2022-07-04T08:59:36;101628.38;;;24.13;100.00
56392;BME280;42289;53.582;9.714;2022-07-04T09:02:04;101675.28;;;25.39;100.00
56392;BME280;42289;53.582;9.714;2022-07-04T09:04:31;101689.75;;;25.25;100.00
56392;BME280;42289;53.582;9.714;2022-07-04T09:06:58;101683.59;;;25.25;100.00
56392;BME280;42289;53.582;9.714;2022-07-04T09:09:25;101653.00;;;24.15;100.00
56392;BME280;42289;53.582;9.714;2022-07-04T09:11:52;101648.22;;;24.30;100.00
56392;BME280;42289;53.582;9.714;2022-07-04T09:14:19;101665.00;;;24.94;100.00
56392;BME280;42289;53.582;9.714;2022-07-04T09:16:45;101654.97;;;25.48;100.00
56392;BME280;42289;53.582;9.714;2022-07-04T09:19:20;101720.31;;;26.12;100.00
56392;BME280;42289;53.582;9.714;2022-07-04T09:21:48;101726.34;;;26.34;100.00
56392;BME280;42289;53.582;9.714;2022-07-04T09:24:15;101712.94;;;26.93;100.00
56392;BME280;42289;53.582;9.714;2022-07-04T09:26:44;101731.91;;;25.92;100.00
56392;BME280;42289;53.582;9.714;2022-07-04T09:29:11;101717.59;;;25.93;100.00
56392;BME280;42289;53.582;9.714;2022-07-04T09:31:38;101705.94;;;25.74;100.00
56392;BME280;42289;53.582;9.714;2022-07-04T09:34:06;101702.88;;;26.47;100.00
56392;BME280;42289;53.582;9.714;2022-07-04T09:36:38;101710.59;;;25.41;100.00
56392;BME280;42289;53.582;9.714;2022-07-04T09:39:07;101693.97;;;24.66;100.00
56392;BME280;42289;53.582;9.714;2022-07-04T09:41:59;101688.19;;;23.84;100.00
56392;BME280;42289;53.582;9.714;2022-07-04T09:44:28;101650.00;;;24.62;100.00
56392;BME280;42289;53.582;9.714;2022-07-04T09:46:55;101650.34;;;24.57;100.00
56392;BME280;42289;53.582;9.714;2022-07-04T09:49:22;101652.75;;;25.12;100.00
56392;BME280;42289;53.582;9.714;2022-07-04T09:51:51;101670.94;;;25.07;100.00
56392;BME280;42289;53.582;9.714;2022-07-04T09:54:20;101686.81;;;25.18;100.00
56392;BME280;42289;53.582;9.714;2022-07-04T09:56:50;101687.78;;;25.17;100.00
56392;BME280;42289;53.582;9.714;2022-07-04T09:59:17;101683.25;;;25.08;100.00
56392;BME280;42289;53.582;9.714;2022-07-04T10:01:44;101692.72;;;25.63;100.00
56392;BME280;42289;53.582;9.714;2022-07-04T10:04:10;101683.59;;;25.56;100.00
56392;BME280;42289;53.582;9.714;2022-07-04T10:06:39;101686.91;;;24.23;100.00
56392;BME280;42289;53.582;9.714;2022-07-04T10:09:09;101677.25;;;23.89;100.00
56392;BME280;42289;53.582;9.714;2022-07-04T10:11:37;101689.03;;;24.29;100.00
56392;BME280;42289;53.582;9.714;2022-07-04T10:14:04;101678.59;;;24.16;100.00
56392;BME280;42289;53.582;9.714;2022-07-04T10:16:31;101651.28;;;23.81;100.00
56392;BME280;42289;53.582;9.714;2022-07-04T10:18:58;101666.06;;;23.63;100.00
56392;BME280;42289;53.582;9.714;2022-07-04T10:21:27;101655.34;;;22.96;100.00
56392;BME280;42289;53.582;9.714;2022-07-04T10:23:53;101636.19;;;22.81;100.00
56392;BME280;42289;53.582;9.714;2022-07-04T10:26:24;101659.75;;;22.50;100.00
56392;BME280;42289;53.582;9.714;2022-07-04T10:28:50;101612.06;;;22.26;100.00
56392;BME280;42289;53.582;9.714;2022-07-04T10:31:18;101596.19;;;21.91;100.00
56392;BME280;42289;53.582;9.714;2022-07-04T10:33:47;101609.63;;;22.12;100.00
56392;BME280;42289;53.582;9.714;2022-07-04T10:36:15;101599.13;;;21.75;100.00
56392;BME280;42289;53.582;9.714;2022-07-04T10:38:52;101558.16;;;22.27;100.00
56392;BME280;42289;53.582;9.714;2022-07-04T10:41:22;101608.31;;;22.98;100.00
56392;BME280;42289;53.582;9.714;2022-07-04T10:43:57;101627.50;;;22.91;100.00
56392;BME280;42289;53.582;9.714;2022-07-04T10:46:36;101547.34;;;22.98;100.00
56392;BME280;42289;53.582;9.714;2022-07-04T10:49:06;101595.19;;;22.63;100.00
56392;BME280;42289;53.582;9.714;2022-07-04T10:51:38;101621.19;;;22.58;100.00
56392;BME280;42289;53.582;9.714;2022-07-04T10:54:08;101576.19;;;22.22;100.00
56392;BME280;42289;53.582;9.714;2022-07-04T10:56:41;101557.81;;;21.61;100.00
56392;BME280;42289;53.582;9.714;2022-07-04T10:59:10;101545.34;;;21.50;100.00
56392;BME280;42289;53.582;9.714;2022-07-04T11:01:37;101513.94;;;21.45;100.00
56392;BME280;42289;53.582;9.714;2022-07-04T11:04:03;101526.66;;;21.40;100.00
56392;BME280;42289;53.582;9.714;2022-07-04T11:06:49;101524.28;;;21.24;100.00
56392;BME280;42289;53.582;9.714;2022-07-04T11:09:18;101532.97;;;21.50;100.00
56392;BME280;42289;53.582;9.714;2022-07-04T11:11:53;101514.47;;;21.38;100.00
56392;BME280;42289;53.582;9.714;2022-07-04T11:14:39;101484.66;;;21.95;100.00
56392;BME280;42289;53.582;9.714;2022-07-04T11:17:08;101513.56;;;22.10;100.00
56392;BME280;42289;53.582;9.714;2022-07-04T11:19:35;101526.38;;;21.92;100.00
56392;BME280;42289;53.582;9.714;2022-07-04T11:22:02;101527.78;;;21.49;100.00
56392;BME280;42289;53.582;9.714;2022-07-04T11:24:30;101546.41;;;21.47;100.00
56392;BME280;42289;53.582;9.714;2022-07-04T11:27:07;101502.94;;;21.39;100.00
56392;BME280;42289;53.582;9.714;2022-07-04T11:29:34;101512.56;;;21.15;100.00
56392;BME280;42289;53.582;9.714;2022-07-04T11:32:00;101515.94;;;20.93;100.00
56392;BME280;42289;53.582;9.714;2022-07-04T11:34:31;101490.47;;;21.16;100.00
56392;BME280;42289;53.582;9.714;2022-07-04T11:36:58;101462.84;;;21.21;100.00
56392;BME280;42289;53.582;9.714;2022-07-04T11:39:26;101387.41;;;21.75;100.00
56392;BME280;42289;53.582;9.714;2022-07-04T11:41:53;101440.66;;;22.28;100.00
56392;BME280;42289;53.582;9.714;2022-07-04T11:44:40;101544.72;;;22.76;100.00
56392;BME280;42289;53.582;9.714;2022-07-04T11:47:31;101495.19;;;22.76;100.00
56392;BME280;42289;53.582;9.714;2022-07-04T11:49:59;101482.44;;;22.36;100.00
56392;BME280;42289;53.582;9.714;2022-07-04T11:52:30;101468.19;;;22.14;100.00
56392;BME280;42289;53.582;9.714;2022-07-04T11:54:59;101470.13;;;22.12;100.00
56392;BME280;42289;53.582;9.714;2022-07-04T11:57:29;101472.00;;;21.88;100.00
56392;BME280;42289;53.582;9.714;2022-07-04T12:00:00;101465.88;;;21.87;100.00
56392;BME280;42289;53.582;9.714;2022-07-04T12:02:29;101494.72;;;21.79;100.00
56392;BME280;42289;53.582;9.714;2022-07-04T12:04:56;101457.28;;;21.72;100.00
56392;BME280;42289;53.582;9.714;2022-07-04T12:07:23;101472.47;;;21.81;100.00
56392;BME280;42289;53.582;9.714;2022-07-04T12:09:51;101412.44;;;21.71;100.00
56392;BME280;42289;53.582;9.714;2022-07-04T12:12:18;101421.19;;;21.71;100.00
56392;BME280;42289;53.582;9.714;2022-07-04T12:15:00;101467.19;;;21.93;100.00
56392;BME280;42289;53.582;9.714;2022-07-04T12:17:32;101414.75;;;21.98;100.00
56392;BME280;42289;53.582;9.714;2022-07-04T12:20:00;101459.03;;;22.18;100.00
56392;BME280;42289;53.582;9.714;2022-07-04T12:22:31;101415.00;;;22.29;100.00
56392;BME280;42289;53.582;9.714;2022-07-04T12:24:59;101485.56;;;22.30;100.00
56392;BME280;42289;53.582;9.714;2022-07-04T12:27:27;101489.38;;;22.03;100.00
56392;BME280;42289;53.582;9.714;2022-07-04T12:29:54;101441.69;;;21.92;100.00
56392;BME280;42289;53.582;9.714;2022-07-04T12:32:22;101528.00;;;21.70;100.00
56392;BME280;42289;53.582;9.714;2022-07-04T12:34:52;101431.84;;;21.94;100.00
56392;BME280;42289;53.582;9.714;2022-07-04T12:37:18;101476.69;;;21.84;100.00
56392;BME280;42289;53.582;9.714;2022-07-04T12:39:45;101487.03;;;21.87;100.00
56392;BME280;42289;53.582;9.714;2022-07-04T12:42:13;101498.25;;;21.55;100.00
56392;BME280;42289;53.582;9.714;2022-07-04T12:44:41;101501.00;;;21.54;100.00
56392;BME280;42289;53.582;9.714;2022-07-04T12:47:08;101506.38;;;21.76;100.00